Terminal Aerodrome Forecast
Issued by NWS San Angelo, TX

Home | Current Version | Previous Version | Text Only | Print | Product List | Glossary On
Versions: 1 2 3 4 5 6 7 8 9 10 11 12 13 14
000
FTUS44 KSJT 191132
TAFSJT
TAF
KSJT 191132Z 1912/2012 15005KT P6SM OVC012
     FM191800 24006KT P6SM SCT025 BKN035
     FM192200 24006KT P6SM BKN050
     FM200000 19006KT P6SM VCTS BKN060CB
     FM200300 VRB04KT P6SM SCT050 BKN100=

USA.gov is the U.S. government's official web portal to all federal, state and local government web resources and services.